Time,TemperatureF,DewpointF,PressureIn,WindDirection,WindDirectionDegrees,WindSpeedMPH,WindSpeedGustMPH,Humidity,HourlyPrecipIn,Conditions,Clouds,dailyrainin,SoftwareType,DateUTC
2013-02-02 00:12:00,51.8,34.7,30.05,South,180,4.7,-999.0,52,-99.99,,,0.00,Acu-Link.com,2013-02-02 06:12:00,
2013-02-02 00:27:00,51.1,35.0,30.04,South,180,3.7,-999.0,54,-99.99,,,0.00,Acu-Link.com,2013-02-02 06:27:00,
2013-02-02 00:42:00,49.6,34.6,30.05,South,180,1.7,-999.0,56,-99.99,,,0.00,Acu-Link.com,2013-02-02 06:42:00,
2013-02-02 00:57:00,50.4,36.2,30.05,South,180,3.2,-999.0,58,-99.99,,,0.00,Acu-Link.com,2013-02-02 06:57:00,
2013-02-02 01:12:00,50.0,36.2,30.05,South,180,3.2,-999.0,59,-99.99,,,0.00,Acu-Link.com,2013-02-02 07:12:00,
2013-02-02 01:27:00,49.8,36.9,30.05,SSW,202,3.2,-999.0,61,-99.99,,,0.00,Acu-Link.com,2013-02-02 07:27:00,
2013-02-02 01:43:00,48.2,36.6,30.05,SSW,202,0.0,-999.0,64,-99.99,,,0.00,Acu-Link.com,2013-02-02 07:43:00,
2013-02-02 01:58:00,46.4,36.0,30.05,SSW,202,0.0,-999.0,67,-99.99,,,0.00,Acu-Link.com,2013-02-02 07:58:00,
2013-02-02 02:13:00,45.0,35.5,30.05,SSW,202,2.2,-999.0,69,-99.99,,,0.00,Acu-Link.com,2013-02-02 08:13:00,
2013-02-02 02:28:00,44.1,35.0,30.05,SSW,202,0.0,-999.0,70,-99.99,,,0.00,Acu-Link.com,2013-02-02 08:28:00,
2013-02-02 02:43:00,42.4,34.0,30.04,SSW,202,0.0,-999.0,72,-99.99,,,0.00,Acu-Link.com,2013-02-02 08:43:00,
2013-02-02 02:58:00,41.0,33.4,30.04,SSW,202,0.0,-999.0,74,-99.99,,,0.00,Acu-Link.com,2013-02-02 08:58:00,
2013-02-02 03:16:00,40.8,33.2,30.04,SSW,202,0.0,-999.0,74,-99.99,,,0.00,Acu-Link.com,2013-02-02 09:16:00,
2013-02-02 03:31:00,39.7,33.1,30.04,SSW,202,0.0,-999.0,77,-99.99,,,0.00,Acu-Link.com,2013-02-02 09:31:00,
2013-02-02 03:47:00,39.4,33.4,30.05,SSW,202,0.0,-999.0,79,-99.99,,,0.00,Acu-Link.com,2013-02-02 09:47:00,
2013-02-02 04:02:00,39.6,34.3,30.04,SSW,202,0.0,-999.0,81,-99.99,,,0.00,Acu-Link.com,2013-02-02 10:02:00,
2013-02-02 04:17:00,39.9,35.2,30.05,SSW,202,1.1,-999.0,83,-99.99,,,0.00,Acu-Link.com,2013-02-02 10:17:00,
2013-02-02 04:32:00,41.0,35.6,30.05,SSW,202,0.0,-999.0,81,-99.99,,,0.00,Acu-Link.com,2013-02-02 10:32:00,
2013-02-02 04:48:00,41.7,36.3,30.05,SSW,202,2.2,-999.0,81,-99.99,,,0.00,Acu-Link.com,2013-02-02 10:48:00,
2013-02-02 05:03:00,41.2,35.8,30.05,SSW,202,0.0,-999.0,81,-99.99,,,0.00,Acu-Link.com,2013-02-02 11:03:00,
2013-02-02 05:18:00,41.4,36.0,30.05,SSW,202,2.7,-999.0,81,-99.99,,,0.00,Acu-Link.com,2013-02-02 11:18:00,
2013-02-02 05:33:00,42.1,36.7,30.05,SSW,202,2.7,-999.0,81,-99.99,,,0.00,Acu-Link.com,2013-02-02 11:33:00,
2013-02-02 05:48:00,42.3,36.9,30.05,SSW,202,2.7,-999.0,81,-99.99,,,0.00,Acu-Link.com,2013-02-02 11:48:00,
2013-02-02 06:03:00,41.4,36.3,30.05,SSW,202,0.0,-999.0,82,-99.99,,,0.00,Acu-Link.com,2013-02-02 12:03:00,
2013-02-02 06:18:00,40.8,36.3,30.05,SSW,202,1.7,-999.0,84,-99.99,,,0.00,Acu-Link.com,2013-02-02 12:18:00,
2013-02-02 06:33:00,40.5,36.4,30.06,SSW,202,0.0,-999.0,85,-99.99,,,0.00,Acu-Link.com,2013-02-02 12:33:00,
2013-02-02 06:48:00,40.5,36.6,30.06,SSW,202,1.7,-999.0,86,-99.99,,,0.00,Acu-Link.com,2013-02-02 12:48:00,
2013-02-02 07:04:00,39.9,36.1,30.07,SSW,202,1.7,-999.0,86,-99.99,,,0.00,Acu-Link.com,2013-02-02 13:04:00,
2013-02-02 07:19:00,39.7,36.2,30.08,SSW,202,0.0,-999.0,87,-99.99,,,0.00,Acu-Link.com,2013-02-02 13:19:00,
2013-02-02 07:34:00,39.2,35.7,30.08,SSW,202,0.0,-999.0,87,-99.99,,,0.00,Acu-Link.com,2013-02-02 13:34:00,
2013-02-02 07:49:00,40.8,36.9,30.09,SSW,202,0.0,-999.0,86,-99.99,,,0.00,Acu-Link.com,2013-02-02 13:49:00,
2013-02-02 08:04:00,44.2,38.7,30.09,SSW,202,0.0,-999.0,81,-99.99,,,0.00,Acu-Link.com,2013-02-02 14:04:00,
2013-02-02 08:19:00,46.6,39.1,30.09,SSW,202,2.7,-999.0,75,-99.99,,,0.00,Acu-Link.com,2013-02-02 14:19:00,
2013-02-02 08:34:00,47.1,40.3,30.10,South,180,2.2,-999.0,77,-99.99,,,0.00,Acu-Link.com,2013-02-02 14:34:00,
2013-02-02 08:49:00,50.2,41.9,30.10,South,180,1.7,-999.0,73,-99.99,,,0.00,Acu-Link.com,2013-02-02 14:49:00,
2013-02-02 09:04:00,52.3,43.2,30.11,South,180,6.8,-999.0,71,-99.99,,,0.00,Acu-Link.com,2013-02-02 15:04:00,
2013-02-02 09:19:00,54.0,44.4,30.12,SW,225,4.7,-999.0,70,-99.99,,,0.00,Acu-Link.com,2013-02-02 15:19:00,
2013-02-02 09:35:00,56.3,45.5,30.12,South,180,3.7,-999.0,67,-99.99,,,0.00,Acu-Link.com,2013-02-02 15:35:00,
2013-02-02 09:50:00,57.9,45.8,30.13,NW,315,2.7,-999.0,64,-99.99,,,0.00,Acu-Link.com,2013-02-02 15:50:00,
2013-02-02 10:05:00,59.9,47.3,30.13,NW,315,3.2,-999.0,63,-99.99,,,0.00,Acu-Link.com,2013-02-02 16:05:00,
2013-02-02 10:20:00,59.2,46.2,30.13,WNW,292,2.7,-999.0,62,-99.99,,,0.00,Acu-Link.com,2013-02-02 16:20:00,
2013-02-02 10:35:00,61.7,46.8,30.13,South,180,6.3,-999.0,58,-99.99,,,0.00,Acu-Link.com,2013-02-02 16:35:00,
2013-02-02 10:50:00,63.0,47.1,30.13,WSW,247,7.3,-999.0,56,-99.99,,,0.00,Acu-Link.com,2013-02-02 16:50:00,
2013-02-02 11:05:00,64.0,47.0,30.13,NW,315,4.7,-999.0,54,-99.99,,,0.00,Acu-Link.com,2013-02-02 17:05:00,
2013-02-02 11:20:00,65.8,47.2,30.13,West,270,4.7,-999.0,51,-99.99,,,0.00,Acu-Link.com,2013-02-02 17:20:00,
2013-02-02 11:35:00,66.7,47.5,30.12,WSW,247,9.4,-999.0,50,-99.99,,,0.00,Acu-Link.com,2013-02-02 17:35:00,
2013-02-02 11:51:00,66.7,46.9,30.12,NW,315,3.2,-999.0,49,-99.99,,,0.00,Acu-Link.com,2013-02-02 17:51:00,
2013-02-02 12:06:00,67.3,48.0,30.11,NW,315,1.1,-999.0,50,-99.99,,,0.00,Acu-Link.com,2013-02-02 18:06:00,
2013-02-02 12:21:00,68.0,47.6,30.11,ENE,67,2.7,-999.0,48,-99.99,,,0.00,Acu-Link.com,2013-02-02 18:21:00,
2013-02-02 12:36:00,69.4,47.7,30.11,NW,315,5.3,-999.0,46,-99.99,,,0.00,Acu-Link.com,2013-02-02 18:36:00,
2013-02-02 12:51:00,69.3,47.0,30.10,North,0,11.9,-999.0,45,-99.99,,,0.00,Acu-Link.com,2013-02-02 18:51:00,
2013-02-02 13:06:00,69.3,46.4,30.09,NNE,22,10.9,-999.0,44,-99.99,,,0.00,Acu-Link.com,2013-02-02 19:06:00,
2013-02-02 13:21:00,69.8,46.3,30.09,NNW,337,9.4,-999.0,43,-99.99,,,0.00,Acu-Link.com,2013-02-02 19:21:00,
2013-02-02 13:36:00,70.2,46.0,30.09,WNW,292,3.7,-999.0,42,-99.99,,,0.00,Acu-Link.com,2013-02-02 19:36:00,
2013-02-02 13:51:00,70.0,45.2,30.08,NE,45,3.2,-999.0,41,-99.99,,,0.00,Acu-Link.com,2013-02-02 19:51:00,
2013-02-02 14:07:00,70.9,44.7,30.08,ESE,112,4.7,-999.0,39,-99.99,,,0.00,Acu-Link.com,2013-02-02 20:07:00,
2013-02-02 14:22:00,70.7,44.5,30.08,ESE,112,9.4,-999.0,39,-99.99,,,0.00,Acu-Link.com,2013-02-02 20:22:00,
2013-02-02 14:37:00,70.2,43.4,30.08,East,90,4.2,-999.0,38,-99.99,,,0.00,Acu-Link.com,2013-02-02 20:37:00,
2013-02-02 14:52:00,69.6,42.2,30.08,North,0,5.3,-999.0,37,-99.99,,,0.00,Acu-Link.com,2013-02-02 20:52:00,
2013-02-02 15:07:00,70.3,43.5,30.08,NE,45,6.8,-999.0,38,-99.99,,,0.00,Acu-Link.com,2013-02-02 21:07:00,
2013-02-02 15:22:00,70.7,43.1,30.09,NE,45,7.8,-999.0,37,-99.99,,,0.00,Acu-Link.com,2013-02-02 21:22:00,
2013-02-02 15:37:00,70.5,42.3,30.09,NE,45,6.3,-999.0,36,-99.99,,,0.00,Acu-Link.com,2013-02-02 21:37:00,
2013-02-02 15:52:00,70.3,39.0,30.08,NE,45,12.5,-999.0,32,-99.99,,,0.00,Acu-Link.com,2013-02-02 21:52:00,
2013-02-02 16:07:00,69.4,39.8,30.08,NNE,22,6.8,-999.0,34,-99.99,,,0.00,Acu-Link.com,2013-02-02 22:07:00,
2013-02-02 16:23:00,70.2,39.7,30.09,NE,45,7.3,-999.0,33,-99.99,,,0.00,Acu-Link.com,2013-02-02 22:23:00,
2013-02-02 16:38:00,69.4,38.3,30.09,NE,45,9.9,-999.0,32,-99.99,,,0.00,Acu-Link.com,2013-02-02 22:38:00,
2013-02-02 16:53:00,68.9,39.4,30.09,North,0,8.9,-999.0,34,-99.99,,,0.00,Acu-Link.com,2013-02-02 22:53:00,
2013-02-02 17:08:00,68.2,36.4,30.09,NNE,22,6.3,-999.0,31,-99.99,,,0.00,Acu-Link.com,2013-02-02 23:08:00,
2013-02-02 17:23:00,67.6,35.9,30.10,NNE,22,8.9,-999.0,31,-99.99,,,0.00,Acu-Link.com,2013-02-02 23:23:00,
2013-02-02 17:38:00,66.2,32.1,30.11,NNE,22,8.9,-999.0,28,-99.99,,,0.00,Acu-Link.com,2013-02-02 23:38:00,
2013-02-02 17:54:00,64.4,33.1,30.10,NE,45,6.8,-999.0,31,-99.99,,,0.00,Acu-Link.com,2013-02-02 23:54:00,
2013-02-02 18:09:00,62.1,34.1,30.11,NNE,22,4.2,-999.0,35,-99.99,,,0.00,Acu-Link.com,2013-02-03 00:09:00,
2013-02-02 18:24:00,60.1,34.4,30.12,NNE,22,3.2,-999.0,38,-99.99,,,0.00,Acu-Link.com,2013-02-03 00:24:00,
2013-02-02 18:39:00,58.1,34.5,30.12,NNE,22,1.7,-999.0,41,-99.99,,,0.00,Acu-Link.com,2013-02-03 00:39:00,
2013-02-02 18:54:00,55.8,34.8,30.12,NNE,22,2.2,-999.0,45,-99.99,,,0.00,Acu-Link.com,2013-02-03 00:54:00,
2013-02-02 19:09:00,54.5,34.1,30.13,NNE,22,2.2,-999.0,46,-99.99,,,0.00,Acu-Link.com,2013-02-03 01:09:00,
2013-02-02 19:24:00,54.0,34.2,30.13,NNE,22,3.2,-999.0,47,-99.99,,,0.00,Acu-Link.com,2013-02-03 01:24:00,
2013-02-02 19:39:00,53.4,34.2,30.14,NNE,22,3.2,-999.0,48,-99.99,,,0.00,Acu-Link.com,2013-02-03 01:39:00,
2013-02-02 19:54:00,52.9,34.3,30.15,NNE,22,2.7,-999.0,49,-99.99,,,0.00,Acu-Link.com,2013-02-03 01:54:00,
2013-02-02 20:10:00,53.1,33.9,30.15,NNE,22,4.2,-999.0,48,-99.99,,,0.00,Acu-Link.com,2013-02-03 02:10:00,
2013-02-02 20:25:00,53.4,33.7,30.15,NNE,22,3.7,-999.0,47,-99.99,,,0.00,Acu-Link.com,2013-02-03 02:25:00,
2013-02-02 20:40:00,53.6,32.2,30.16,NNE,22,3.7,-999.0,44,-99.99,,,0.00,Acu-Link.com,2013-02-03 02:40:00,
2013-02-02 20:55:00,52.9,32.1,30.16,NNE,22,2.7,-999.0,45,-99.99,,,0.00,Acu-Link.com,2013-02-03 02:55:00,
2013-02-02 21:10:00,51.8,31.7,30.17,NNE,22,1.7,-999.0,46,-99.99,,,0.00,Acu-Link.com,2013-02-03 03:10:00,
2013-02-02 21:25:00,50.4,30.9,30.17,NNE,22,0.0,-999.0,47,-99.99,,,0.00,Acu-Link.com,2013-02-03 03:25:00,
2013-02-02 21:40:00,49.3,31.5,30.17,NNE,22,0.0,-999.0,50,-99.99,,,0.00,Acu-Link.com,2013-02-03 03:40:00,
2013-02-02 21:55:00,48.6,32.7,30.18,NNE,22,2.7,-999.0,54,-99.99,,,0.00,Acu-Link.com,2013-02-03 03:55:00,
2013-02-02 22:10:00,46.8,31.5,30.18,NNE,22,0.0,-999.0,55,-99.99,,,0.00,Acu-Link.com,2013-02-03 04:10:00,
2013-02-02 22:26:00,45.0,31.1,30.18,NNE,22,0.0,-999.0,58,-99.99,,,0.00,Acu-Link.com,2013-02-03 04:26:00,
2013-02-02 22:41:00,43.3,31.6,30.18,NNE,22,0.0,-999.0,63,-99.99,,,0.00,Acu-Link.com,2013-02-03 04:41:00,
2013-02-02 22:56:00,43.7,31.9,30.18,NNE,22,1.7,-999.0,63,-99.99,,,0.00,Acu-Link.com,2013-02-03 04:56:00,
2013-02-02 23:11:00,42.3,31.8,30.18,NNE,22,2.2,-999.0,66,-99.99,,,0.00,Acu-Link.com,2013-02-03 05:11:00,
2013-02-02 23:26:00,41.5,31.4,30.19,NNE,22,0.0,-999.0,67,-99.99,,,0.00,Acu-Link.com,2013-02-03 05:26:00,
2013-02-02 23:41:00,41.2,31.8,30.19,NNE,22,1.7,-999.0,69,-99.99,,,0.00,Acu-Link.com,2013-02-03 05:41:00,
2013-02-02 23:56:00,41.7,31.9,30.18,NNE,22,1.7,-999.0,68,-99.99,,,0.00,Acu-Link.com,2013-02-03 05:56:00,